Time;durP1;ratioP1;P1;durP2;ratioP2;P2;SDS_P1;SDS_P2;PMS_P1;PMS_P2;Temp;Humidity;BMP_temperature;BMP_pressure;BME280_temperature;BME280_humidity;BME280_pressure;Samples;Min_cycle;Max_cycle;Signal;HPM_P1;HPM_P2
2023/06/07 00:00:00;;;;;;;;;;;;;;;15.73;56.89;92846.34;2069865;69;20050;-76
2023/06/07 00:02:27;;;;;;;;;;;;;;;15.73;56.83;92843.50;2066689;69;20110;-76
2023/06/07 00:04:53;;;;;;;;;;;;;;;15.72;57.01;92839.22;2059692;69;20577;-76
2023/06/07 00:07:18;;;;;;;;;;;;;;;15.63;57.17;92840.22;2059577;69;20049;-77
2023/06/07 00:09:46;;;;;;;;;;;;;;;15.63;57.05;92840.22;2069836;69;20046;-76
2023/06/07 00:12:12;;;;;;;;;;;;;;;15.56;57.55;92841.31;2059771;69;20073;-76
2023/06/07 00:14:38;;;;;;;;;;;;;;;15.59;57.02;92831.50;2072186;69;20056;-76
2023/06/07 00:17:03;;;;;;;;;;;;;;;15.55;56.25;92839.84;2072522;69;20535;-75
2023/06/07 00:19:29;;;;;;;;;;;;;;;15.50;56.39;92836.09;2059540;69;20046;-76
2023/06/07 00:21:57;;;;;;;;;;;;;;;15.56;57.09;92836.34;2059835;69;20507;-76
2023/06/07 00:24:24;;;;;;;;;;;;;;;15.53;57.28;92831.94;2059402;69;20116;-77
2023/06/07 00:26:50;;;;;;;;;;;;;;;15.15;57.84;92816.78;2072513;69;20426;-76
2023/06/07 00:29:16;;;;;;;;;;;;;;;15.46;56.35;92819.63;2059344;69;20592;-76
2023/06/07 00:31:42;;;;;;;;;;;;;;;15.25;57.37;92822.91;2073116;69;20069;-76
2023/06/07 00:34:08;;;;;;;;;;;;;;;15.31;57.48;92836.66;2070248;69;20053;-76
2023/06/07 00:36:37;;;;;;;;;;;;;;;15.30;57.53;92832.31;2060003;69;20057;-76
2023/06/07 00:39:02;;;;;;;;;;;;;;;15.36;57.45;92829.78;2059892;69;20066;-76
2023/06/07 00:41:30;;;;;;;;;;;;;;;15.32;58.14;92832.44;2060199;69;20133;-77
2023/06/07 00:43:58;;;;;;;;;;;;;;;15.06;58.57;92841.19;2060090;69;20058;-76
2023/06/07 00:46:27;;;;;;;;;;;;;;;15.19;58.55;92831.88;2059917;69;20046;-76
2023/06/07 00:48:55;;;;;;;;;;;;;;;15.12;58.34;92841.47;2072726;69;20199;-77
2023/06/07 00:54:50;;;;;;;;;;;;;;;14.91;59.31;92830.56;2059812;69;20072;-77
2023/06/07 01:00:51;;;;;;;;;;;;;;;14.96;58.21;92824.44;2052778;70;20046;-75
2023/06/07 01:03:17;;;;;;;;;;;;;;;14.85;59.76;92819.69;2053111;69;20051;-77
2023/06/07 01:05:47;;;;;;;;;;;;;;;14.96;59.10;92818.03;2053420;70;20145;-74
2023/06/07 01:08:13;;;;;;;;;;;;;;;14.82;59.70;92817.38;2053256;70;20627;-74
2023/06/07 01:10:39;;;;;;;;;;;;;;;14.65;60.87;92810.94;2053264;70;20141;-76
2023/06/07 01:13:11;;;;;;;;;;;;;;;14.37;61.11;92809.56;2053145;70;20047;-75
2023/06/07 01:15:38;;;;;;;;;;;;;;;14.64;60.04;92814.41;2053019;70;20062;-74
2023/06/07 01:18:09;;;;;;;;;;;;;;;14.72;59.75;92809.88;2053125;70;20054;-74
2023/06/07 01:20:40;;;;;;;;;;;;;;;14.66;60.37;92812.41;2052854;70;20063;-75
2023/06/07 01:23:09;;;;;;;;;;;;;;;14.70;60.41;92812.59;2052381;70;20062;-75
2023/06/07 01:25:34;;;;;;;;;;;;;;;14.69;60.65;92816.06;2052203;70;20079;-74
2023/06/07 01:28:00;;;;;;;;;;;;;;;14.59;60.63;92821.25;2052854;70;20050;-74
2023/06/07 01:30:31;;;;;;;;;;;;;;;14.56;61.05;92817.59;2053013;70;20051;-74
2023/06/07 01:33:03;;;;;;;;;;;;;;;14.61;60.94;92818.50;2052762;70;20502;-75
2023/06/07 01:35:30;;;;;;;;;;;;;;;14.58;60.55;92819.81;2053413;70;20523;-73
2023/06/07 01:37:56;;;;;;;;;;;;;;;14.24;61.88;92811.06;2049939;70;20217;-75
2023/06/07 01:40:23;;;;;;;;;;;;;;;14.30;61.20;92814.19;2052681;70;20062;-76
2023/06/07 01:42:52;;;;;;;;;;;;;;;14.47;61.16;92807.19;2053126;70;20057;-76
2023/06/07 01:45:18;;;;;;;;;;;;;;;14.40;61.56;92811.84;2049559;70;20043;-76
2023/06/07 01:47:44;;;;;;;;;;;;;;;14.42;61.17;92808.38;2052715;70;20058;-76
2023/06/07 01:50:10;;;;;;;;;;;;;;;14.44;61.22;92811.31;2053075;70;20150;-77
2023/06/07 01:52:37;;;;;;;;;;;;;;;14.36;61.48;92803.16;2053547;69;20055;-77
2023/06/07 01:55:03;;;;;;;;;;;;;;;14.41;61.08;92810.47;2053759;69;20116;-76
2023/06/07 01:57:32;;;;;;;;;;;;;;;14.41;61.61;92809.75;2059893;69;20062;-76
2023/06/07 02:00:17;;;;;;;;;;;;;;;14.33;61.96;92807.25;2072399;69;20427;-76
2023/06/07 02:02:42;;;;;;;;;;;;;;;14.24;61.93;92808.22;2069979;69;20056;-75
2023/06/07 02:05:16;;;;;;;;;;;;;;;14.21;61.29;92807.41;2059555;69;20054;-76
2023/06/07 02:07:45;;;;;;;;;;;;;;;14.26;61.73;92805.50;2072950;69;20046;-74
2023/06/07 02:10:12;;;;;;;;;;;;;;;14.33;61.53;92815.00;2059687;69;20191;-75
2023/06/07 02:12:39;;;;;;;;;;;;;;;14.38;60.86;92805.34;2073580;69;20053;-75
2023/06/07 02:15:05;;;;;;;;;;;;;;;14.40;61.03;92806.19;2060321;69;20143;-76
2023/06/07 02:17:32;;;;;;;;;;;;;;;14.36;60.97;92811.66;2073087;69;20054;-75
2023/06/07 02:19:58;;;;;;;;;;;;;;;14.22;61.68;92811.69;2059479;69;20046;-76
2023/06/07 02:22:28;;;;;;;;;;;;;;;14.17;61.93;92804.38;2059368;69;20062;-76
2023/06/07 02:24:56;;;;;;;;;;;;;;;14.26;60.34;92804.78;2072662;69;20073;-75
2023/06/07 02:27:21;;;;;;;;;;;;;;;14.24;60.39;92802.56;2073007;69;20142;-75
2023/06/07 02:29:48;;;;;;;;;;;;;;;14.41;59.37;92798.41;2070050;69;20216;-76
2023/06/07 02:32:16;;;;;;;;;;;;;;;14.34;60.52;92803.06;2059931;69;20622;-75
2023/06/07 02:34:43;;;;;;;;;;;;;;;13.94;61.97;92796.88;2059760;69;20149;-75
2023/06/07 02:37:08;;;;;;;;;;;;;;;14.30;60.13;92805.69;2059821;69;20198;-75
2023/06/07 02:39:33;;;;;;;;;;;;;;;14.27;60.95;92803.41;2072819;69;20141;-76
2023/06/07 02:42:00;;;;;;;;;;;;;;;14.33;60.63;92803.69;2059539;69;20046;-75
2023/06/07 02:44:30;;;;;;;;;;;;;;;14.21;60.59;92810.22;2059823;69;20114;-74
2023/06/07 02:46:58;;;;;;;;;;;;;;;14.32;60.64;92802.22;2070177;69;20110;-75
2023/06/07 02:49:25;;;;;;;;;;;;;;;14.29;61.59;92803.50;2072598;69;20086;-75
2023/06/07 02:51:51;;;;;;;;;;;;;;;14.31;60.67;92806.44;2070205;69;20049;-75
2023/06/07 02:54:19;;;;;;;;;;;;;;;14.33;60.39;92810.09;2060082;69;20042;-75
2023/06/07 02:56:45;;;;;;;;;;;;;;;14.34;60.76;92803.06;2070040;69;20420;-74
2023/06/07 02:59:10;;;;;;;;;;;;;;;14.15;61.33;92807.09;2059467;69;20156;-75
2023/06/07 03:01:39;;;;;;;;;;;;;;;14.31;60.75;92812.81;2072956;69;20111;-75
2023/06/07 03:04:06;;;;;;;;;;;;;;;14.26;60.74;92811.16;2072877;69;20054;-75
2023/06/07 03:06:32;;;;;;;;;;;;;;;14.30;59.73;92802.88;2069771;69;20057;-76
2023/06/07 03:09:07;;;;;;;;;;;;;;;14.18;61.19;92810.75;2072738;69;20053;-76
2023/06/07 03:11:36;;;;;;;;;;;;;;;14.30;60.89;92816.31;2072942;69;20054;-75
2023/06/07 03:14:01;;;;;;;;;;;;;;;14.02;61.63;92822.03;2072879;69;20417;-75
2023/06/07 03:16:35;;;;;;;;;;;;;;;14.17;61.37;92827.03;2072754;69;20064;-74
2023/06/07 03:19:03;;;;;;;;;;;;;;;13.84;63.25;92821.84;2072699;69;20144;-74
2023/06/07 03:21:29;;;;;;;;;;;;;;;14.12;60.72;92822.53;2072365;69;20223;-74
2023/06/07 03:23:58;;;;;;;;;;;;;;;14.17;60.67;92817.78;2072347;69;20085;-75
2023/06/07 03:26:25;;;;;;;;;;;;;;;14.05;61.39;92820.75;2059641;69;20527;-75
2023/06/07 03:28:54;;;;;;;;;;;;;;;13.97;61.90;92823.91;2072736;69;20162;-76
2023/06/07 03:31:25;;;;;;;;;;;;;;;13.87;62.38;92828.31;2072721;69;20107;-76
2023/06/07 03:33:57;;;;;;;;;;;;;;;13.54;63.37;92829.50;2069910;69;20056;-76
2023/06/07 03:36:29;;;;;;;;;;;;;;;13.77;62.77;92827.81;2072384;69;20073;-76
2023/06/07 03:38:57;;;;;;;;;;;;;;;13.79;63.36;92834.31;2072769;69;20070;-76
2023/06/07 03:41:22;;;;;;;;;;;;;;;13.77;63.53;92836.28;2069937;69;20050;-76
2023/06/07 03:43:51;;;;;;;;;;;;;;;13.81;63.14;92842.16;2072482;69;20085;-76
2023/06/07 03:46:17;;;;;;;;;;;;;;;13.79;62.63;92834.31;2072849;69;20049;-75
2023/06/07 03:48:43;;;;;;;;;;;;;;;13.91;61.76;92834.19;2072844;69;20162;-75
2023/06/07 03:51:09;;;;;;;;;;;;;;;13.84;62.63;92832.44;2070147;69;20469;-75
2023/06/07 03:53:35;;;;;;;;;;;;;;;13.82;62.53;92838.69;2069913;69;20133;-75
2023/06/07 03:56:02;;;;;;;;;;;;;;;13.79;63.37;92839.22;2072427;69;20050;-75
2023/06/07 03:58:31;;;;;;;;;;;;;;;13.79;63.40;92842.03;2072791;69;20057;-76
2023/06/07 04:01:02;;;;;;;;;;;;;;;13.79;63.20;92842.03;2069868;69;20046;-75
2023/06/07 04:03:32;;;;;;;;;;;;;;;13.86;63.25;92843.84;2071797;69;20141;-76
2023/06/07 04:06:01;;;;;;;;;;;;;;;13.88;62.96;92841.84;2072879;69;20061;-76
2023/06/07 04:08:28;;;;;;;;;;;;;;;13.78;63.25;92846.97;2072829;69;20481;-76
2023/06/07 04:10:54;;;;;;;;;;;;;;;13.97;63.10;92842.97;2072831;69;20057;-75
2023/06/07 04:13:19;;;;;;;;;;;;;;;13.95;62.93;92848.53;2059853;69;20074;-76
2023/06/07 04:15:45;;;;;;;;;;;;;;;13.98;63.16;92841.63;2072391;69;20048;-76
2023/06/07 04:18:12;;;;;;;;;;;;;;;13.97;62.59;92857.13;2072096;69;20056;-76
2023/06/07 04:20:39;;;;;;;;;;;;;;;13.67;63.90;92845.00;2069213;69;20049;-77
2023/06/07 04:23:10;;;;;;;;;;;;;;;13.96;62.85;92859.22;2059414;69;20050;-77
2023/06/07 04:25:38;;;;;;;;;;;;;;;13.86;63.77;92858.72;2059513;69;20057;-75
2023/06/07 04:31:34;;;;;;;;;;;;;;;13.84;63.05;92861.47;2059565;69;20049;-76
2023/06/07 04:34:02;;;;;;;;;;;;;;;13.90;63.14;92861.03;2072278;69;20135;-76
2023/06/07 04:36:30;;;;;;;;;;;;;;;13.81;62.94;92857.03;2059116;69;20050;-76
2023/06/07 04:39:02;;;;;;;;;;;;;;;13.47;64.95;92862.38;2069364;69;20441;-76
2023/06/07 04:41:32;;;;;;;;;;;;;;;13.44;64.77;92865.72;2072338;69;20082;-76
2023/06/07 04:44:08;;;;;;;;;;;;;;;13.69;63.54;92870.56;2072463;69;20098;-75
2023/06/07 04:46:39;;;;;;;;;;;;;;;13.80;64.52;92866.16;2059455;69;20479;-75
2023/06/07 04:49:09;;;;;;;;;;;;;;;13.82;65.01;92861.34;2072429;69;20097;-75
2023/06/07 04:51:38;;;;;;;;;;;;;;;13.88;64.62;92866.56;2059478;69;20086;-76
2023/06/07 04:54:05;;;;;;;;;;;;;;;13.84;64.52;92864.28;2072713;69;20057;-75
2023/06/07 04:56:40;;;;;;;;;;;;;;;13.96;64.27;92864.88;2058623;69;20435;-76
2023/06/07 04:59:08;;;;;;;;;;;;;;;14.02;63.85;92864.47;2052325;70;20173;-76
2023/06/07 05:01:35;;;;;;;;;;;;;;;14.03;63.61;92863.13;2051697;70;20051;-76
2023/06/07 05:04:02;;;;;;;;;;;;;;;14.06;64.08;92867.50;2052204;70;20042;-77
2023/06/07 05:06:37;;;;;;;;;;;;;;;14.08;63.95;92861.94;2052646;70;20512;-77
2023/06/07 05:09:06;;;;;;;;;;;;;;;14.08;64.37;92864.06;2052276;70;20108;-77
2023/06/07 05:11:33;;;;;;;;;;;;;;;14.15;64.09;92866.53;2049613;70;20070;-77
2023/06/07 05:14:01;;;;;;;;;;;;;;;14.09;64.53;92859.84;2052356;70;20466;-77
2023/06/07 05:16:27;;;;;;;;;;;;;;;14.12;64.52;92858.59;2052801;70;20055;-77
2023/06/07 05:18:56;;;;;;;;;;;;;;;14.19;64.52;92872.41;2053095;70;20081;-76
2023/06/07 05:21:22;;;;;;;;;;;;;;;14.20;64.67;92868.22;2052693;70;20047;-76
2023/06/07 05:23:48;;;;;;;;;;;;;;;14.23;63.81;92864.13;2053698;69;20458;-75
2023/06/07 05:26:13;;;;;;;;;;;;;;;14.17;65.71;92869.50;2052965;70;20074;-75
2023/06/07 05:28:39;;;;;;;;;;;;;;;14.18;63.81;92867.38;2052954;70;20087;-75
2023/06/07 05:31:04;;;;;;;;;;;;;;;13.94;65.46;92864.06;2052812;70;20138;-74
2023/06/07 05:33:32;;;;;;;;;;;;;;;13.98;64.82;92862.19;2053526;70;20057;-75
2023/06/07 05:35:59;;;;;;;;;;;;;;;14.26;63.42;92873.47;2052534;70;20157;-76
2023/06/07 05:38:25;;;;;;;;;;;;;;;14.24;64.86;92871.25;2052999;70;20137;-76
2023/06/07 05:40:53;;;;;;;;;;;;;;;14.20;65.39;92864.66;2052736;70;20062;-76
2023/06/07 05:43:20;;;;;;;;;;;;;;;14.22;65.54;92868.31;2052738;70;20043;-76
2023/06/07 05:45:47;;;;;;;;;;;;;;;14.39;64.66;92861.38;2052642;70;20260;-76
2023/06/07 05:48:15;;;;;;;;;;;;;;;14.38;65.59;92862.00;2052815;70;20779;-76
2023/06/07 05:50:41;;;;;;;;;;;;;;;14.44;64.14;92857.38;2052466;70;20043;-76
2023/06/07 05:53:06;;;;;;;;;;;;;;;14.45;63.66;92864.50;2053509;69;20046;-77
2023/06/07 05:55:31;;;;;;;;;;;;;;;14.53;63.62;92860.63;2054567;69;20544;-75
2023/06/07 05:57:57;;;;;;;;;;;;;;;14.62;63.93;92859.66;2059605;69;20053;-75
2023/06/07 06:03:52;;;;;;;;;;;;;;;14.59;65.47;92858.81;2059917;69;20056;-75
2023/06/07 06:06:17;;;;;;;;;;;;;;;14.62;66.13;92854.00;2060011;69;20042;-75
2023/06/07 06:08:43;;;;;;;;;;;;;;;14.67;65.68;92855.66;2059567;69;20069;-74
2023/06/07 06:11:10;;;;;;;;;;;;;;;14.73;65.00;92848.16;2059787;69;20151;-74
2023/06/07 06:13:37;;;;;;;;;;;;;;;14.74;65.13;92854.56;2059735;69;20057;-75
2023/06/07 06:16:03;;;;;;;;;;;;;;;14.86;65.59;92854.41;2059749;69;20046;-74
2023/06/07 06:18:29;;;;;;;;;;;;;;;14.91;65.48;92853.97;2059803;69;20046;-73
2023/06/07 06:20:54;;;;;;;;;;;;;;;15.17;64.09;92859.41;2059872;69;20042;-75
2023/06/07 06:23:20;;;;;;;;;;;;;;;15.30;64.40;92852.19;2072972;69;20420;-74
2023/06/07 06:25:46;;;;;;;;;;;;;;;15.39;62.92;92851.91;2059178;69;20512;-75
2023/06/07 06:28:12;;;;;;;;;;;;;;;15.54;63.11;92855.41;2059987;69;20085;-75
2023/06/07 06:30:37;;;;;;;;;;;;;;;15.61;62.96;92852.19;2059533;69;20146;-75
2023/06/07 06:33:03;;;;;;;;;;;;;;;15.73;61.43;92847.09;2059739;69;20066;-76
2023/06/07 06:35:32;;;;;;;;;;;;;;;15.81;61.56;92848.81;2059725;69;20053;-75
2023/06/07 06:37:58;;;;;;;;;;;;;;;15.86;62.95;92848.34;2072258;69;20141;-74
2023/06/07 06:40:28;;;;;;;;;;;;;;;16.02;61.92;92842.63;2059596;69;20058;-77
2023/06/07 06:42:54;;;;;;;;;;;;;;;16.17;61.86;92843.97;2072334;69;20126;-76
2023/06/07 06:45:40;;;;;;;;;;;;;;;16.20;62.08;92843.41;2072229;69;20420;-75
2023/06/07 06:48:06;;;;;;;;;;;;;;;16.35;60.44;92847.56;2059549;69;20140;-76
2023/06/07 06:50:31;;;;;;;;;;;;;;;16.41;59.80;92845.00;2059620;69;20076;-75
2023/06/07 06:52:58;;;;;;;;;;;;;;;16.46;58.96;92843.78;2059544;69;20082;-76
2023/06/07 06:55:25;;;;;;;;;;;;;;;16.53;59.28;92842.66;2059257;69;20062;-75
2023/06/07 06:57:51;;;;;;;;;;;;;;;16.62;59.74;92837.28;2059524;69;20195;-77
2023/06/07 07:00:16;;;;;;;;;;;;;;;16.74;61.04;92834.97;2072579;69;20492;-76
2023/06/07 07:02:42;;;;;;;;;;;;;;;16.86;60.14;92831.88;2059366;69;20477;-76
2023/06/07 07:05:07;;;;;;;;;;;;;;;16.99;58.52;92828.13;2059153;69;20053;-76
2023/06/07 07:07:34;;;;;;;;;;;;;;;17.01;58.63;92825.38;2059531;69;20117;-75
2023/06/07 07:10:00;;;;;;;;;;;;;;;17.17;57.78;92828.13;2072416;69;20050;-75
2023/06/07 07:12:26;;;;;;;;;;;;;;;17.18;58.30;92821.03;2059286;69;20057;-76
2023/06/07 07:14:51;;;;;;;;;;;;;;;17.24;57.56;92829.81;2059577;69;20058;-75
2023/06/07 07:20:46;;;;;;;;;;;;;;;17.55;59.99;92817.47;2059177;69;20049;-76
2023/06/07 07:23:13;;;;;;;;;;;;;;;17.55;59.77;92823.16;2072448;69;20511;-75
2023/06/07 07:25:38;;;;;;;;;;;;;;;17.71;58.21;92815.19;2059628;69;20049;-75
2023/06/07 07:28:04;;;;;;;;;;;;;;;17.62;54.53;92818.41;2059599;69;20564;-73
2023/06/07 07:30:29;;;;;;;;;;;;;;;17.84;56.71;92813.56;2072494;69;20161;-73
2023/06/07 07:32:56;;;;;;;;;;;;;;;17.90;56.55;92813.75;2059207;69;20048;-75
2023/06/07 07:35:25;;;;;;;;;;;;;;;18.11;56.44;92809.50;2059914;69;20103;-74
2023/06/07 07:37:53;;;;;;;;;;;;;;;18.24;58.52;92808.53;2059711;69;20050;-74
2023/06/07 07:43:48;;;;;;;;;;;;;;;18.24;50.81;92799.28;2059526;69;20108;-76
2023/06/07 07:46:18;;;;;;;;;;;;;;;18.08;50.75;92802.28;2059265;69;20053;-74
2023/06/07 07:48:44;;;;;;;;;;;;;;;18.40;50.94;92796.94;2060088;69;20169;-77
2023/06/07 07:51:10;;;;;;;;;;;;;;;18.54;49.92;92800.28;2059590;69;20157;-75
2023/06/07 07:53:35;;;;;;;;;;;;;;;18.52;48.66;92796.63;2059624;69;20136;-76
2023/06/07 07:56:02;;;;;;;;;;;;;;;18.76;48.72;92793.88;2059626;69;20152;-77
2023/06/07 07:58:27;;;;;;;;;;;;;;;18.75;48.62;92789.56;2059798;69;20053;-77
2023/06/07 08:00:53;;;;;;;;;;;;;;;18.90;47.25;92782.91;2072719;69;20054;-77
2023/06/07 08:03:19;;;;;;;;;;;;;;;19.11;48.12;92786.41;2059447;69;20218;-77
2023/06/07 08:05:45;;;;;;;;;;;;;;;19.50;48.65;92786.13;2072146;69;20145;-77
2023/06/07 08:08:10;;;;;;;;;;;;;;;19.78;47.97;92788.38;2059699;69;20170;-77
2023/06/07 08:10:36;;;;;;;;;;;;;;;19.67;46.84;92781.66;2059664;69;20068;-77
2023/06/07 08:13:07;;;;;;;;;;;;;;;20.03;47.89;92772.63;2059609;69;20054;-75
2023/06/07 08:15:33;;;;;;;;;;;;;;;20.30;47.50;92786.22;2059225;69;20058;-76
2023/06/07 08:18:00;;;;;;;;;;;;;;;20.53;44.50;92781.84;2059318;69;20050;-78
2023/06/07 08:20:25;;;;;;;;;;;;;;;20.51;43.16;92783.91;2072533;69;20054;-78
2023/06/07 08:22:53;;;;;;;;;;;;;;;20.85;42.26;92774.69;2059209;69;20046;-76
2023/06/07 08:25:22;;;;;;;;;;;;;;;21.57;43.34;92777.78;2069753;69;20150;-78
2023/06/07 08:27:48;;;;;;;;;;;;;;;21.98;41.49;92767.16;2059237;69;20062;-78
2023/06/07 08:30:17;;;;;;;;;;;;;;;21.60;42.22;92770.69;2072427;69;20251;-77
2023/06/07 08:32:43;;;;;;;;;;;;;;;22.04;42.82;92765.16;2059763;69;20483;-75
2023/06/07 08:35:10;;;;;;;;;;;;;;;22.16;40.38;92761.06;2069792;69;20046;-76
2023/06/07 08:37:35;;;;;;;;;;;;;;;22.44;40.90;92763.72;2059418;69;20050;-76
2023/06/07 08:43:30;;;;;;;;;;;;;;;23.15;40.13;92762.06;2059388;69;20092;-75
2023/06/07 08:45:56;;;;;;;;;;;;;;;23.32;37.52;92766.63;2072495;69;20058;-76
2023/06/07 08:48:22;;;;;;;;;;;;;;;24.31;36.28;92754.91;2059659;69;20014;-76
2023/06/07 08:50:49;;;;;;;;;;;;;;;25.28;36.45;92759.38;2060197;69;20046;-75
2023/06/07 08:53:18;;;;;;;;;;;;;;;24.52;37.25;92760.91;2059713;69;20218;-75
2023/06/07 08:55:44;;;;;;;;;;;;;;;24.79;36.35;92759.72;2067639;69;20066;-76
2023/06/07 08:58:10;;;;;;;;;;;;;;;25.65;37.16;92762.50;2053165;69;20047;-76
2023/06/07 09:00:36;;;;;;;;;;;;;;;25.56;34.62;92759.56;2053584;70;20449;-76
2023/06/07 09:03:02;;;;;;;;;;;;;;;25.32;35.21;92753.66;2052650;70;20051;-76
2023/06/07 09:05:28;;;;;;;;;;;;;;;25.26;36.76;92753.63;2053295;69;20051;-76
2023/06/07 09:07:53;;;;;;;;;;;;;;;25.94;35.71;92751.88;2053358;70;20425;-76
2023/06/07 09:10:20;;;;;;;;;;;;;;;26.70;33.20;92747.03;2052240;70;20055;-76
2023/06/07 09:12:48;;;;;;;;;;;;;;;26.91;34.37;92748.50;2053470;70;20050;-77
2023/06/07 09:15:20;;;;;;;;;;;;;;;27.26;33.67;92736.94;2053209;70;20050;-77
2023/06/07 09:17:55;;;;;;;;;;;;;;;27.44;32.22;92739.09;2053344;70;20505;-76
2023/06/07 09:20:23;;;;;;;;;;;;;;;27.16;33.24;92748.53;2052809;70;20073;-75
2023/06/07 09:22:58;;;;;;;;;;;;;;;28.11;32.45;92748.31;2053392;69;20053;-75
2023/06/07 09:25:24;;;;;;;;;;;;;;;27.92;31.91;92743.34;2053384;70;20067;-77
2023/06/07 09:27:50;;;;;;;;;;;;;;;27.67;31.16;92734.69;2053423;70;20022;-75
2023/06/07 09:30:17;;;;;;;;;;;;;;;28.08;31.21;92734.59;2052950;70;20062;-76
2023/06/07 09:32:43;;;;;;;;;;;;;;;28.49;32.27;92735.13;2053281;69;20050;-76
2023/06/07 09:35:15;;;;;;;;;;;;;;;29.04;31.17;92728.97;2053779;70;20046;-77
2023/06/07 09:41:09;;;;;;;;;;;;;;;29.39;28.89;92728.69;2054265;70;20042;-77
2023/06/07 09:43:54;;;;;;;;;;;;;;;30.17;27.98;92730.81;2053642;70;20099;-78
2023/06/07 09:46:21;;;;;;;;;;;;;;;30.04;28.26;92728.03;2053573;70;20059;-77
2023/06/07 09:48:47;;;;;;;;;;;;;;;31.00;27.97;92726.06;2053372;69;20054;-77
2023/06/07 09:51:13;;;;;;;;;;;;;;;30.65;29.24;92726.53;2052977;69;20062;-77
2023/06/07 09:53:56;;;;;;;;;;;;;;;31.29;28.04;92729.22;2053059;69;20058;-77
2023/06/07 09:56:22;;;;;;;;;;;;;;;31.08;27.96;92726.63;2056781;69;20122;-79
2023/06/07 09:58:49;;;;;;;;;;;;;;;31.67;26.16;92712.59;2060064;69;20050;-76
2023/06/07 10:04:44;;;;;;;;;;;;;;;32.17;25.71;92710.91;2060085;69;20018;-77
2023/06/07 10:07:12;;;;;;;;;;;;;;;32.57;26.17;92712.25;2060095;69;20504;-77
2023/06/07 10:09:38;;;;;;;;;;;;;;;32.97;24.12;92709.22;2072847;69;20046;-77
2023/06/07 10:12:05;;;;;;;;;;;;;;;32.91;24.77;92710.09;2059851;69;20080;-77
2023/06/07 10:14:33;;;;;;;;;;;;;;;33.57;23.85;92712.13;2060039;69;20046;-77
2023/06/07 10:17:04;;;;;;;;;;;;;;;33.49;24.31;92695.53;2073178;69;20053;-77
2023/06/07 10:19:35;;;;;;;;;;;;;;;34.14;22.98;92701.88;2073070;69;20050;-77
2023/06/07 10:22:01;;;;;;;;;;;;;;;34.12;23.00;92699.00;2060027;69;20438;-78
2023/06/07 10:24:30;;;;;;;;;;;;;;;34.08;21.50;92693.28;2073074;69;20483;-79
2023/06/07 10:27:03;;;;;;;;;;;;;;;33.96;20.93;92691.44;2073189;69;20046;-79
2023/06/07 10:29:39;;;;;;;;;;;;;;;34.99;22.28;92692.81;2059973;69;20062;-77
2023/06/07 10:32:07;;;;;;;;;;;;;;;35.72;19.67;92695.53;2060034;69;20465;-78
2023/06/07 10:34:36;;;;;;;;;;;;;;;36.15;20.73;92685.25;2059630;69;20140;-78
2023/06/07 10:37:02;;;;;;;;;;;;;;;36.76;18.82;92682.31;2059912;69;20053;-77
2023/06/07 10:39:28;;;;;;;;;;;;;;;39.58;17.45;92683.19;2059968;69;20050;-77
2023/06/07 10:41:54;;;;;;;;;;;;;;;39.15;15.14;92679.38;2073194;69;20576;-76
2023/06/07 10:44:19;;;;;;;;;;;;;;;39.28;15.45;92672.94;2060274;69;20050;-76
2023/06/07 10:46:44;;;;;;;;;;;;;;;42.46;14.34;92678.53;2059967;69;20153;-77
2023/06/07 10:49:28;;;;;;;;;;;;;;;42.43;14.85;92686.09;2059849;69;20499;-77
2023/06/07 10:51:58;;;;;;;;;;;;;;;43.13;13.78;92678.03;2060120;69;20172;-81
2023/06/07 10:54:29;;;;;;;;;;;;;;;41.20;12.63;92672.53;2060476;69;20054;-81
2023/06/07 10:56:54;;;;;;;;;;;;;;;43.53;13.05;92679.94;2061060;69;20069;-81
2023/06/07 10:59:21;;;;;;;;;;;;;;;43.80;12.21;92678.16;2061267;69;20046;-78
2023/06/07 11:01:48;;;;;;;;;;;;;;;43.60;11.88;92674.31;2059992;69;20042;-78
2023/06/07 11:04:39;;;;;;;;;;;;;;;43.73;11.99;92666.03;2059706;69;20069;-77
2023/06/07 11:07:15;;;;;;;;;;;;;;;44.31;12.53;92672.53;2059796;69;20054;-77
2023/06/07 11:09:42;;;;;;;;;;;;;;;42.83;12.33;92662.88;2060044;69;20102;-78
2023/06/07 11:12:07;;;;;;;;;;;;;;;43.71;12.16;92659.50;2060123;69;20145;-77
2023/06/07 11:14:34;;;;;;;;;;;;;;;44.99;12.30;92670.78;2059883;69;20145;-76
2023/06/07 11:17:04;;;;;;;;;;;;;;;45.96;9.63;92665.22;2060083;69;20023;-78
2023/06/07 11:19:49;;;;;;;;;;;;;;;46.28;10.69;92668.75;2059980;69;20561;-77
2023/06/07 11:22:19;;;;;;;;;;;;;;;45.55;9.54;92659.34;2060118;69;20014;-80
2023/06/07 11:24:47;;;;;;;;;;;;;;;49.17;9.13;92666.75;2059498;69;20044;-79
2023/06/07 11:27:18;;;;;;;;;;;;;;;47.58;8.97;92660.72;2072342;69;20066;-78
2023/06/07 11:29:45;;;;;;;;;;;;;;;49.56;9.43;92658.75;2058583;69;20497;-77
2023/06/07 11:32:12;;;;;;;;;;;;;;;49.68;8.88;92653.25;2069409;69;20443;-77
2023/06/07 11:34:37;;;;;;;;;;;;;;;50.96;9.30;92653.34;2059803;69;20049;-78
2023/06/07 11:37:11;;;;;;;;;;;;;;;49.58;7.55;92636.94;2059860;69;20473;-76
2023/06/07 11:39:37;;;;;;;;;;;;;;;49.98;7.60;92634.81;2072200;69;20497;-78
2023/06/07 11:42:03;;;;;;;;;;;;;;;49.72;10.21;92625.97;2072595;69;20085;-77
2023/06/07 11:44:29;;;;;;;;;;;;;;;46.78;10.42;92623.97;2059376;69;20070;-76
2023/06/07 11:46:55;;;;;;;;;;;;;;;47.28;8.21;92616.22;2059120;69;20459;-76
2023/06/07 11:49:23;;;;;;;;;;;;;;;50.24;8.05;92623.41;2059425;69;20057;-76
2023/06/07 11:51:48;;;;;;;;;;;;;;;47.95;8.52;92609.97;2071973;69;20136;-76
2023/06/07 11:57:44;;;;;;;;;;;;;;;46.98;8.83;92607.47;2056646;69;20145;-76
2023/06/07 12:00:15;;;;;;;;;;;;;;;46.61;9.32;92600.75;2059191;69;20149;-77
2023/06/07 12:02:41;;;;;;;;;;;;;;;49.71;8.24;92603.63;2059344;69;20516;-76
2023/06/07 12:05:10;;;;;;;;;;;;;;;48.59;8.74;92599.34;2059422;69;20455;-77
2023/06/07 12:07:36;;;;;;;;;;;;;;;43.15;10.52;92588.34;2059211;69;20056;-76
2023/06/07 12:10:07;;;;;;;;;;;;;;;43.96;11.00;92581.53;2059136;69;20141;-76
2023/06/07 12:12:34;;;;;;;;;;;;;;;41.96;11.35;92576.56;2059459;69;20061;-77
2023/06/07 12:15:00;;;;;;;;;;;;;;;41.18;12.26;92568.59;2059361;69;20003;-78
2023/06/07 12:17:34;;;;;;;;;;;;;;;39.31;13.37;92556.47;2059551;69;20057;-78
2023/06/07 12:20:09;;;;;;;;;;;;;;;35.39;15.33;92553.22;2059842;69;20054;-77
2023/06/07 12:22:35;;;;;;;;;;;;;;;36.69;15.93;92546.22;2059595;69;20149;-76
2023/06/07 12:25:12;;;;;;;;;;;;;;;34.82;15.98;92545.66;2072725;69;20500;-78
2023/06/07 12:27:37;;;;;;;;;;;;;;;33.38;16.90;92528.06;2060153;69;20042;-79
2023/06/07 12:30:05;;;;;;;;;;;;;;;33.18;17.46;92525.72;2072958;69;20050;-77
2023/06/07 12:32:31;;;;;;;;;;;;;;;34.26;16.13;92525.53;2060084;69;20061;-76
2023/06/07 12:35:01;;;;;;;;;;;;;;;33.16;17.61;92532.31;2060138;69;20142;-77
2023/06/07 12:37:27;;;;;;;;;;;;;;;31.95;17.50;92525.06;2060079;69;20088;-77
2023/06/07 12:39:53;;;;;;;;;;;;;;;33.04;18.44;92515.88;2060117;69;20058;-78
2023/06/07 12:42:19;;;;;;;;;;;;;;;33.16;17.39;92511.91;2060350;69;20054;-79
2023/06/07 12:44:50;;;;;;;;;;;;;;;32.96;18.98;92509.53;2060305;69;20133;-78
2023/06/07 12:47:17;;;;;;;;;;;;;;;31.29;18.46;92506.03;2054535;69;20477;-79
2023/06/07 12:49:42;;;;;;;;;;;;;;;31.99;18.08;92502.41;2073331;69;20078;-80
2023/06/07 12:52:09;;;;;;;;;;;;;;;31.86;18.58;92501.97;2060297;69;20505;-79
2023/06/07 12:54:35;;;;;;;;;;;;;;;31.12;17.17;92502.03;2060126;69;20053;-79
2023/06/07 12:57:01;;;;;;;;;;;;;;;31.79;17.85;92494.81;2060068;69;20050;-79
2023/06/07 12:59:26;;;;;;;;;;;;;;;32.63;18.18;92496.50;2059949;69;20046;-79
2023/06/07 13:01:52;;;;;;;;;;;;;;;31.59;18.97;92495.25;2059695;69;20053;-79
2023/06/07 13:04:18;;;;;;;;;;;;;;;31.62;19.08;92482.13;2060135;69;20566;-78
2023/06/07 13:06:44;;;;;;;;;;;;;;;31.33;19.95;92473.25;2060072;69;20152;-78
2023/06/07 13:09:11;;;;;;;;;;;;;;;30.78;19.77;92483.75;2060067;69;20077;-78
2023/06/07 13:11:39;;;;;;;;;;;;;;;30.75;18.47;92479.47;2060093;69;20045;-78
2023/06/07 13:14:06;;;;;;;;;;;;;;;31.43;20.72;92478.88;2060175;69;20069;-77
2023/06/07 13:16:31;;;;;;;;;;;;;;;31.07;19.67;92478.13;2060244;69;20058;-77
2023/06/07 13:18:57;;;;;;;;;;;;;;;30.35;19.88;92475.06;2063524;69;20109;-78
2023/06/07 13:21:22;;;;;;;;;;;;;;;30.83;19.05;92464.75;2060333;69;20061;-78
2023/06/07 13:23:49;;;;;;;;;;;;;;;30.34;19.08;92462.03;2060192;69;20057;-78